createdAt,value
2022-10-06T00:01:11.551Z,77.62
2022-10-06T00:03:39.830Z,78.93
2022-10-06T00:06:07.966Z,77.61
2022-10-06T00:08:38.484Z,78.25
2022-10-06T00:11:06.542Z,78.82
2022-10-06T00:13:34.499Z,78.52
2022-10-06T00:16:02.280Z,78.65
2022-10-06T00:18:30.315Z,77.90
2022-10-06T00:21:01.067Z,78.68
2022-10-06T00:23:31.468Z,78.01
2022-10-06T00:25:58.528Z,78.21
2022-10-06T00:28:26.575Z,78.59
2022-10-06T00:30:56.125Z,78.36
2022-10-06T00:33:24.027Z,79.45
2022-10-06T00:36:00.854Z,78.82
2022-10-06T00:38:28.651Z,78.79
2022-10-06T00:40:56.014Z,79.05
2022-10-06T00:43:53.733Z,79.45
2022-10-06T00:46:31.881Z,79.02
2022-10-06T00:49:22.031Z,78.95
2022-10-06T00:52:04.347Z,79.66
2022-10-06T00:54:33.445Z,79.28
2022-10-06T00:57:00.817Z,79.38
2022-10-06T00:59:27.808Z,80.07
2022-10-06T01:02:04.429Z,80.01
2022-10-06T01:04:37.273Z,79.57
2022-10-06T01:07:04.639Z,78.55
2022-10-06T01:09:32.585Z,79.55
2022-10-06T01:12:04.169Z,79.01
2022-10-06T01:14:31.925Z,78.96
2022-10-06T01:17:12.086Z,79.26
2022-10-06T01:20:11.763Z,78.73
2022-10-06T01:23:06.805Z,78.93
2022-10-06T01:25:35.527Z,78.91
2022-10-06T01:28:06.968Z,78.25
2022-10-06T01:30:52.652Z,78.99
2022-10-06T01:33:26.169Z,78.83
2022-10-06T01:35:53.652Z,78.21
2022-10-06T01:38:21.968Z,79.33
2022-10-06T01:40:52.491Z,79.69
2022-10-06T01:43:20.685Z,78.89
2022-10-06T01:45:55.808Z,79.39
2022-10-06T01:48:24.065Z,78.81
2022-10-06T01:50:51.347Z,78.82
2022-10-06T01:53:19.104Z,79.31
2022-10-06T01:55:46.434Z,79.40
2022-10-06T01:58:13.641Z,79.25
2022-10-06T02:00:41.076Z,79.16
2022-10-06T02:03:08.551Z,79.27
2022-10-06T02:05:35.760Z,79.71
2022-10-06T02:08:03.607Z,79.73
2022-10-06T02:10:30.865Z,79.70
2022-10-06T02:12:57.820Z,78.96
2022-10-06T02:15:26.793Z,79.22
2022-10-06T02:17:54.811Z,79.46
2022-10-06T02:20:22.393Z,79.38
2022-10-06T02:22:49.686Z,79.27
2022-10-06T02:25:17.212Z,79.33
2022-10-06T02:27:44.571Z,79.66
2022-10-06T02:30:14.505Z,79.68
2022-10-06T02:32:44.016Z,79.99
2022-10-06T02:35:12.984Z,79.75
2022-10-06T02:37:41.605Z,80.36
2022-10-06T02:40:09.967Z,80.19
2022-10-06T02:42:38.202Z,80.72
2022-10-06T02:45:06.942Z,80.45
2022-10-06T02:47:36.390Z,80.68
2022-10-06T02:50:07.797Z,80.21
2022-10-06T02:52:38.341Z,79.78
2022-10-06T02:55:07.506Z,81.36
2022-10-06T02:57:34.471Z,80.82
2022-10-06T03:00:01.434Z,80.86
2022-10-06T03:02:30.967Z,81.02
2022-10-06T03:04:58.024Z,81.09
2022-10-06T03:07:25.051Z,80.84
2022-10-06T03:09:51.960Z,81.02
2022-10-06T03:12:19.202Z,80.55
2022-10-06T03:14:46.086Z,80.27
2022-10-06T03:17:13.046Z,80.01
2022-10-06T03:19:40.075Z,80.53
2022-10-06T03:22:07.125Z,80.61
2022-10-06T03:24:34.994Z,79.74
2022-10-06T03:27:02.033Z,80.75
2022-10-06T03:29:29.798Z,80.66
2022-10-06T03:31:58.419Z,80.99
2022-10-06T03:34:25.724Z,81.06
2022-10-06T03:36:55.766Z,80.84
2022-10-06T03:39:22.730Z,81.79
2022-10-06T03:41:50.254Z,82.20
2022-10-06T03:44:17.189Z,82.38
2022-10-06T03:46:44.181Z,81.75
2022-10-06T03:49:11.182Z,82.57
2022-10-06T03:51:41.772Z,82.54
2022-10-06T03:54:12.470Z,83.57
2022-10-06T03:56:42.642Z,83.44
2022-10-06T03:59:16.382Z,83.13
2022-10-06T04:01:48.252Z,84.40
2022-10-06T04:04:15.381Z,83.74
2022-10-06T04:06:44.545Z,83.25
2022-10-06T04:09:15.712Z,83.62
2022-10-06T04:11:44.741Z,83.41
2022-10-06T04:14:15.854Z,83.23
2022-10-06T04:16:50.177Z,82.71
2022-10-06T04:19:18.974Z,82.66
2022-10-06T04:21:47.660Z,83.52
2022-10-06T04:24:17.155Z,83.10
2022-10-06T04:26:46.794Z,83.38
2022-10-06T04:29:14.457Z,82.26
2022-10-06T04:31:42.564Z,81.75
2022-10-06T04:34:13.217Z,79.08
2022-10-06T04:36:42.602Z,79.45
2022-10-06T04:39:12.117Z,79.83
2022-10-06T04:41:41.964Z,79.47
2022-10-06T04:44:09.003Z,78.74
2022-10-06T04:46:44.709Z,78.57
2022-10-06T04:49:19.069Z,78.89
2022-10-06T04:51:49.759Z,78.11
2022-10-06T04:54:18.532Z,78.35
2022-10-06T04:56:46.415Z,79.10
2022-10-06T04:59:13.366Z,78.26
2022-10-06T05:01:45.268Z,78.53
2022-10-06T05:04:12.312Z,77.97
2022-10-06T05:06:42.286Z,77.61
2022-10-06T05:09:15.477Z,77.29
2022-10-06T05:11:42.469Z,77.54
2022-10-06T05:14:11.073Z,76.70
2022-10-06T05:16:38.386Z,77.68
2022-10-06T05:19:07.737Z,77.16
2022-10-06T05:21:34.831Z,76.74
2022-10-06T05:24:02.861Z,76.92
2022-10-06T05:26:34.315Z,76.50
2022-10-06T05:29:01.861Z,75.53
2022-10-06T05:31:32.762Z,74.71
2022-10-06T05:34:00.492Z,75.03
2022-10-06T05:36:30.663Z,75.89
2022-10-06T05:38:59.064Z,74.98
2022-10-06T05:41:37.613Z,73.92
2022-10-06T05:44:04.630Z,73.72
2022-10-06T05:46:33.189Z,73.04
2022-10-06T05:49:09.141Z,72.57
2022-10-06T05:51:38.726Z,71.93
2022-10-06T05:54:06.384Z,73.19
2022-10-06T05:56:38.381Z,72.49
2022-10-06T05:59:06.145Z,73.50
2022-10-06T06:01:41.685Z,73.94
2022-10-06T06:04:13.957Z,72.14
2022-10-06T06:06:48.576Z,73.40
2022-10-06T06:09:19.748Z,72.98
2022-10-06T06:11:51.113Z,72.85
2022-10-06T06:14:44.353Z,72.27
2022-10-06T06:17:11.503Z,73.32
2022-10-06T06:19:38.575Z,73.53
2022-10-06T06:22:05.501Z,72.35
2022-10-06T06:24:32.465Z,72.64
2022-10-06T06:26:59.409Z,73.02
2022-10-06T06:29:26.354Z,72.18
2022-10-06T06:31:53.348Z,72.05
2022-10-06T06:34:20.304Z,71.86
2022-10-06T06:36:53.543Z,72.50
2022-10-06T06:39:21.806Z,71.27
2022-10-06T06:41:49.194Z,72.57
2022-10-06T06:44:16.374Z,71.91
2022-10-06T06:46:49.433Z,71.52
2022-10-06T06:49:18.960Z,71.80
2022-10-06T06:51:49.979Z,72.23
2022-10-06T06:54:18.205Z,72.64
2022-10-06T06:56:48.944Z,71.63
2022-10-06T06:59:16.150Z,71.85
2022-10-06T07:01:45.710Z,71.87
2022-10-06T07:04:15.705Z,71.51
2022-10-06T07:06:57.826Z,72.39
2022-10-06T07:09:26.370Z,71.38
2022-10-06T07:11:54.954Z,72.49
2022-10-06T07:14:24.028Z,71.61
2022-10-06T07:17:09.690Z,72.54
2022-10-06T07:19:57.175Z,73.03
2022-10-06T07:22:46.596Z,72.49
2022-10-06T07:25:32.034Z,73.16
2022-10-06T07:27:59.049Z,73.82
2022-10-06T07:30:29.204Z,73.38
2022-10-06T07:32:56.266Z,72.51
2022-10-06T07:35:25.169Z,72.03
2022-10-06T07:37:55.667Z,72.29
2022-10-06T07:40:24.990Z,71.78
2022-10-06T07:42:52.317Z,72.63
2022-10-06T07:45:45.405Z,72.20
2022-10-06T07:48:17.969Z,72.34
2022-10-06T07:50:49.059Z,71.75
2022-10-06T07:53:18.133Z,71.24
2022-10-06T07:55:47.757Z,71.39
2022-10-06T07:58:18.775Z,70.91
2022-10-06T08:00:48.785Z,71.06
2022-10-06T08:03:18.042Z,70.74
2022-10-06T08:05:59.026Z,69.76
2022-10-06T08:08:26.197Z,70.27
2022-10-06T08:11:01.623Z,70.12
2022-10-06T08:13:32.323Z,70.69
2022-10-06T08:16:16.923Z,70.26
2022-10-06T08:18:53.342Z,69.46
2022-10-06T08:21:34.411Z,70.09
2022-10-06T08:24:02.055Z,68.32
2022-10-06T08:26:31.216Z,68.62
2022-10-06T08:29:02.155Z,68.85
2022-10-06T08:31:30.920Z,70.15
2022-10-06T08:33:57.992Z,67.67
2022-10-06T08:36:31.832Z,66.77
2022-10-06T08:39:00.526Z,66.26
2022-10-06T08:42:03.831Z,66.06
2022-10-06T08:44:50.439Z,67.85
2022-10-06T08:47:23.453Z,66.94
2022-10-06T08:49:57.386Z,64.70
2022-10-06T08:52:50.239Z,64.36
2022-10-06T08:55:41.758Z,64.35
2022-10-06T08:58:55.608Z,64.14
2022-10-06T09:01:47.679Z,63.64
2022-10-06T09:04:29.262Z,63.18
2022-10-06T09:07:16.611Z,62.51
2022-10-06T09:10:31.246Z,62.26
2022-10-06T09:13:11.729Z,62.85
2022-10-06T09:16:07.539Z,61.07
2022-10-06T09:19:08.286Z,61.52
2022-10-06T09:21:46.268Z,60.74
2022-10-06T09:24:47.544Z,61.72
2022-10-06T09:27:50.492Z,60.26
2022-10-06T09:30:18.808Z,60.15
2022-10-06T09:32:51.372Z,61.81
2022-10-06T09:35:25.014Z,58.72
2022-10-06T09:38:09.067Z,60.79
2022-10-06T09:40:51.392Z,58.46
2022-10-06T09:43:29.637Z,58.66
2022-10-06T09:46:21.218Z,57.15
2022-10-06T09:48:48.126Z,58.82
2022-10-06T09:51:18.305Z,56.98
2022-10-06T09:54:16.359Z,57.57
2022-10-06T09:56:46.079Z,56.75
2022-10-06T09:59:40.146Z,57.51
2022-10-06T10:02:37.267Z,56.39
2022-10-06T10:05:21.287Z,55.52
2022-10-06T10:08:22.257Z,57.69
2022-10-06T10:11:28.104Z,55.56
2022-10-06T10:13:59.830Z,53.92
2022-10-06T10:16:34.515Z,51.78
2022-10-06T10:19:05.587Z,52.07
2022-10-06T10:21:34.867Z,52.93
2022-10-06T10:24:14.948Z,52.54
2022-10-06T10:27:13.159Z,50.50
2022-10-06T10:30:09.218Z,51.49
2022-10-06T10:33:09.309Z,51.18
2022-10-06T10:35:45.729Z,51.10
2022-10-06T10:38:24.661Z,50.75
2022-10-06T10:41:06.846Z,50.17
2022-10-06T10:44:10.596Z,51.25
2022-10-06T10:46:54.871Z,50.75
2022-10-06T10:49:33.585Z,49.33
2022-10-06T10:52:20.381Z,48.56
2022-10-06T10:55:41.176Z,50.07
2022-10-06T10:58:46.804Z,49.42
2022-10-06T11:02:13.359Z,49.93
2022-10-06T11:04:49.481Z,47.75
2022-10-06T11:07:50.002Z,49.06
2022-10-06T11:10:30.414Z,48.07
2022-10-06T11:13:38.669Z,46.27
2022-10-06T11:16:40.626Z,46.18
2022-10-06T11:19:35.805Z,46.61
2022-10-06T11:22:44.546Z,46.68
2022-10-06T11:25:47.968Z,49.47
2022-10-06T11:29:20.030Z,46.92
2022-10-06T11:32:54.242Z,46.68
2022-10-06T11:35:27.431Z,45.40
2022-10-06T11:38:37.796Z,45.93
2022-10-06T11:41:38.732Z,44.52
2022-10-06T11:44:37.238Z,45.85
2022-10-06T11:47:38.382Z,46.86
2022-10-06T11:50:36.580Z,44.88
2022-10-06T11:53:06.005Z,45.05
2022-10-06T11:55:33.051Z,45.52
2022-10-06T11:58:41.920Z,44.57
2022-10-06T12:01:02.484Z,44.53
2022-10-06T12:03:30.947Z,43.63
2022-10-06T12:05:58.023Z,45.13
2022-10-06T12:08:40.749Z,43.46
2022-10-06T12:11:43.748Z,44.20
2022-10-06T12:18:05.045Z,43.20
2022-10-06T12:21:10.451Z,43.72
2022-10-06T12:23:57.865Z,45.42
2022-10-06T12:27:10.334Z,47.79
2022-10-06T12:30:10.886Z,46.86
2022-10-06T12:32:49.658Z,46.72
2022-10-06T12:35:34.030Z,46.15
2022-10-06T12:38:43.077Z,46.70
2022-10-06T12:41:13.056Z,45.07
2022-10-06T12:43:56.968Z,45.49
2022-10-06T12:46:44.766Z,45.14
2022-10-06T12:49:37.168Z,44.97
2022-10-06T12:52:54.314Z,44.85
2022-10-06T12:55:49.317Z,42.35
2022-10-06T12:58:32.316Z,41.53
2022-10-06T13:01:08.872Z,42.50
2022-10-06T13:03:37.688Z,43.38
2022-10-06T13:06:08.592Z,42.88
2022-10-06T13:08:39.674Z,43.03
2022-10-06T13:11:15.859Z,42.73
2022-10-06T13:13:53.264Z,42.55
2022-10-06T13:16:46.617Z,44.65
2022-10-06T13:19:27.158Z,42.24
2022-10-06T13:21:54.540Z,41.62
2022-10-06T13:24:27.118Z,41.76
2022-10-06T13:26:54.624Z,43.67
2022-10-06T13:29:25.905Z,41.58
2022-10-06T13:31:56.670Z,42.56
2022-10-06T13:34:43.203Z,42.06
2022-10-06T13:37:15.404Z,43.73
2022-10-06T13:39:42.424Z,42.60
2022-10-06T13:42:16.180Z,42.20
2022-10-06T13:45:14.668Z,42.69
2022-10-06T13:47:41.769Z,40.99
2022-10-06T13:50:19.789Z,40.98
2022-10-06T13:52:48.830Z,41.13
2022-10-06T13:55:29.476Z,44.22
2022-10-06T13:58:04.977Z,42.78
2022-10-06T14:01:01.316Z,41.85
2022-10-06T14:06:18.955Z,42.86
2022-10-06T14:08:54.088Z,43.19
2022-10-06T14:11:29.104Z,44.47
2022-10-06T14:14:02.270Z,42.55
2022-10-06T14:16:30.166Z,42.59
2022-10-06T14:19:05.605Z,42.31
2022-10-06T14:21:34.644Z,42.56
2022-10-06T14:24:28.539Z,42.48
2022-10-06T14:27:06.282Z,42.49
2022-10-06T14:29:34.270Z,44.00
2022-10-06T14:32:13.977Z,42.69
2022-10-06T14:34:41.966Z,42.50
2022-10-06T14:37:15.323Z,43.94
2022-10-06T14:39:44.945Z,43.29
2022-10-06T14:42:14.887Z,43.55
2022-10-06T14:44:43.110Z,42.64
2022-10-06T14:47:10.490Z,43.73
2022-10-06T14:49:38.113Z,43.30
2022-10-06T14:52:05.582Z,43.13
2022-10-06T14:54:34.470Z,44.02
2022-10-06T14:57:01.729Z,42.69
2022-10-06T14:59:28.863Z,43.76
2022-10-06T15:01:55.841Z,45.78
2022-10-06T15:04:27.571Z,44.60
2022-10-06T15:07:13.269Z,44.92
2022-10-06T15:09:40.235Z,44.49
2022-10-06T15:12:07.172Z,44.71
2022-10-06T15:14:39.920Z,45.47
2022-10-06T15:17:07.504Z,45.95
2022-10-06T15:19:34.500Z,46.07
2022-10-06T15:22:06.193Z,46.67
2022-10-06T15:24:33.122Z,47.01
2022-10-06T15:27:23.861Z,47.70
2022-10-06T15:29:51.654Z,47.00
2022-10-06T15:32:18.598Z,46.67
2022-10-06T15:34:45.605Z,47.10
2022-10-06T15:37:12.563Z,47.65
2022-10-06T15:39:39.540Z,48.51
2022-10-06T15:42:07.973Z,48.82
2022-10-06T15:44:35.322Z,48.53
2022-10-06T15:47:04.648Z,47.98
2022-10-06T15:49:32.974Z,47.76
2022-10-06T15:52:03.691Z,49.56
2022-10-06T15:54:39.414Z,49.81
2022-10-06T15:57:11.597Z,50.00
2022-10-06T15:59:40.991Z,50.10
2022-10-06T16:02:15.762Z,51.46
2022-10-06T16:04:44.311Z,51.12
2022-10-06T16:07:19.959Z,52.31
2022-10-06T16:09:50.441Z,52.59
2022-10-06T16:12:23.203Z,52.09
2022-10-06T16:14:50.586Z,52.63
2022-10-06T16:17:18.957Z,53.17
2022-10-06T16:19:46.925Z,52.67
2022-10-06T16:22:17.883Z,52.02
2022-10-06T16:24:44.890Z,52.23
2022-10-06T16:27:16.123Z,52.59
2022-10-06T16:29:43.150Z,52.40
2022-10-06T16:32:10.691Z,52.52
2022-10-06T16:34:37.603Z,53.45
2022-10-06T16:37:04.650Z,53.27
2022-10-06T16:39:31.614Z,53.57
2022-10-06T16:41:58.622Z,54.06
2022-10-06T16:44:25.558Z,53.95
2022-10-06T16:46:52.483Z,55.69
2022-10-06T16:49:19.807Z,55.93
2022-10-06T16:51:46.784Z,55.76
2022-10-06T16:54:17.015Z,57.06
2022-10-06T16:56:53.814Z,57.62
2022-10-06T16:59:25.946Z,57.11
2022-10-06T17:01:53.153Z,58.14
2022-10-06T17:04:23.527Z,59.03
2022-10-06T17:06:56.781Z,59.34
2022-10-06T17:09:27.858Z,60.26
2022-10-06T17:12:02.333Z,61.31
2022-10-06T17:14:31.991Z,61.90
2022-10-06T17:16:59.373Z,62.68
2022-10-06T17:19:29.980Z,62.26
2022-10-06T17:21:59.284Z,63.42
2022-10-06T17:24:28.515Z,62.08
2022-10-06T17:26:57.148Z,61.28
2022-10-06T17:29:25.891Z,64.12
2022-10-06T17:31:56.551Z,64.00
2022-10-06T17:34:27.824Z,63.10
2022-10-06T17:36:59.256Z,63.64
2022-10-06T17:39:26.157Z,63.42
2022-10-06T17:41:53.995Z,63.24
2022-10-06T17:44:26.274Z,64.34
2022-10-06T17:49:30.406Z,65.71
2022-10-06T17:51:57.533Z,65.84
2022-10-06T17:54:27.272Z,65.45
2022-10-06T17:56:57.362Z,66.41
2022-10-06T17:59:30.306Z,66.59
2022-10-06T18:02:02.429Z,66.76
2022-10-06T18:04:29.921Z,66.93
2022-10-06T18:06:57.304Z,67.38
2022-10-06T18:09:25.020Z,67.81
2022-10-06T18:11:56.560Z,66.93
2022-10-06T18:14:30.150Z,69.44
2022-10-06T18:17:03.715Z,68.66
2022-10-06T18:19:34.926Z,69.41
2022-10-06T18:22:10.107Z,70.25
2022-10-06T18:24:38.928Z,69.21
2022-10-06T18:27:07.789Z,71.45
2022-10-06T18:29:38.077Z,71.17
2022-10-06T18:36:12.289Z,71.78
2022-10-06T18:37:41.460Z,72.38
2022-10-06T18:40:11.161Z,72.11
2022-10-06T18:42:39.368Z,72.16
2022-10-06T18:45:26.828Z,71.42
2022-10-06T18:48:12.674Z,71.89
2022-10-06T18:50:39.902Z,71.41
2022-10-06T18:53:07.114Z,70.85
2022-10-06T18:55:34.884Z,72.55
2022-10-06T18:58:02.090Z,72.68
2022-10-06T19:00:29.027Z,73.76
2022-10-06T19:02:56.721Z,72.99
2022-10-06T19:05:24.635Z,73.56
2022-10-06T19:07:54.002Z,73.40
2022-10-06T19:10:21.425Z,73.40
2022-10-06T19:12:48.451Z,73.92
2022-10-06T19:15:20.253Z,74.26
2022-10-06T19:17:48.820Z,73.33
2022-10-06T19:20:16.077Z,73.37
2022-10-06T19:22:43.359Z,72.89
2022-10-06T19:25:13.798Z,72.70
2022-10-06T19:27:41.063Z,74.96
2022-10-06T19:30:08.382Z,75.23
2022-10-06T19:32:35.361Z,75.13
2022-10-06T19:35:06.397Z,74.33
2022-10-06T19:37:36.326Z,72.74
2022-10-06T19:40:03.529Z,72.66
2022-10-06T19:42:59.820Z,73.17
2022-10-06T19:45:26.796Z,74.00
2022-10-06T19:47:54.585Z,74.91
2022-10-06T19:50:21.638Z,75.18
2022-10-06T19:52:48.592Z,74.75
2022-10-06T19:55:15.521Z,75.02
2022-10-06T19:57:43.072Z,75.44
2022-10-06T20:00:11.353Z,74.75
2022-10-06T20:02:42.185Z,75.13
2022-10-06T20:05:16.815Z,74.87
2022-10-06T20:07:47.088Z,74.86
2022-10-06T20:10:15.218Z,74.46
2022-10-06T20:12:42.337Z,75.34
2022-10-06T20:15:10.843Z,76.05
2022-10-06T20:17:38.137Z,76.94
2022-10-06T20:20:05.771Z,78.67
2022-10-06T20:22:32.738Z,77.75
2022-10-06T20:25:01.726Z,77.45
2022-10-06T20:27:28.683Z,76.62
2022-10-06T20:29:57.896Z,78.06
2022-10-06T20:32:24.848Z,79.26
2022-10-06T20:34:51.770Z,80.37
2022-10-06T20:37:18.674Z,79.38
2022-10-06T20:40:04.015Z,79.89
2022-10-06T20:42:31.243Z,80.50
2022-10-06T20:44:58.425Z,80.54
2022-10-06T20:47:25.379Z,79.44
2022-10-06T20:49:55.037Z,78.10
2022-10-06T20:52:24.330Z,78.49
2022-10-06T20:54:51.452Z,78.70
2022-10-06T20:57:18.575Z,78.80
2022-10-06T20:59:46.052Z,78.52
2022-10-06T21:02:13.373Z,78.25
2022-10-06T21:04:43.546Z,77.70
2022-10-06T21:07:11.139Z,77.35
2022-10-06T21:09:38.105Z,78.88
2022-10-06T21:12:05.217Z,78.95
2022-10-06T21:14:34.033Z,78.91
2022-10-06T21:17:01.686Z,78.47
2022-10-06T21:19:30.169Z,78.65
2022-10-06T21:21:57.229Z,78.63
2022-10-06T21:24:24.348Z,78.05
2022-10-06T21:26:52.612Z,78.36
2022-10-06T21:29:20.469Z,80.31
2022-10-06T21:31:47.494Z,83.35
2022-10-06T21:34:14.815Z,84.33
2022-10-06T21:36:44.164Z,83.05
2022-10-06T21:39:12.945Z,81.76
2022-10-06T21:41:40.361Z,81.23
2022-10-06T21:44:08.823Z,81.25
2022-10-06T21:46:54.412Z,80.09
2022-10-06T21:49:24.694Z,80.09
2022-10-06T21:51:55.116Z,81.12
2022-10-06T21:54:23.697Z,82.45
2022-10-06T21:56:51.166Z,82.75
2022-10-06T21:59:18.458Z,81.88
2022-10-06T22:01:47.429Z,81.54
2022-10-06T22:04:15.529Z,80.31
2022-10-06T22:06:45.118Z,80.11
2022-10-06T22:09:16.529Z,81.40
2022-10-06T22:11:43.928Z,82.51
2022-10-06T22:14:18.217Z,82.54
2022-10-06T22:16:45.610Z,81.67
2022-10-06T22:19:14.901Z,81.01
2022-10-06T22:21:46.238Z,81.17
2022-10-06T22:24:20.139Z,81.67
2022-10-06T22:26:48.672Z,83.48
2022-10-06T22:29:18.433Z,84.10
2022-10-06T22:31:47.701Z,85.94
2022-10-06T22:34:20.128Z,85.39
2022-10-06T22:36:47.318Z,84.36
2022-10-06T22:39:14.737Z,82.67
2022-10-06T22:41:41.987Z,82.39
2022-10-06T22:44:09.098Z,84.36
2022-10-06T22:46:37.470Z,83.97
2022-10-06T22:49:05.950Z,83.63
2022-10-06T22:51:33.325Z,83.23
2022-10-06T22:54:01.002Z,82.58
2022-10-06T22:56:31.750Z,81.88
2022-10-06T22:58:59.596Z,81.93
2022-10-06T23:01:28.756Z,81.58
2022-10-06T23:03:56.360Z,82.82
2022-10-06T23:06:24.390Z,82.47
2022-10-06T23:08:51.520Z,84.82
2022-10-06T23:11:21.212Z,84.83
2022-10-06T23:13:50.137Z,85.19
2022-10-06T23:16:19.243Z,85.55
2022-10-06T23:18:46.989Z,85.65
2022-10-06T23:21:21.845Z,85.18
2022-10-06T23:23:58.083Z,85.78
2022-10-06T23:26:25.504Z,82.72
2022-10-06T23:28:57.651Z,84.48
2022-10-06T23:31:29.294Z,85.01
2022-10-06T23:33:56.689Z,85.95
2022-10-06T23:36:23.959Z,83.12
2022-10-06T23:38:50.915Z,82.98
2022-10-06T23:41:18.199Z,80.59
2022-10-06T23:43:45.235Z,81.20
2022-10-06T23:46:12.863Z,82.67
2022-10-06T23:48:40.172Z,82.67
2022-10-06T23:51:11.200Z,81.62
2022-10-06T23:53:39.004Z,82.61
2022-10-06T23:56:06.804Z,83.71
2022-10-06T23:58:34.366Z,86.02
